createdAt,value
2023-02-26T00:01:51.225Z,98784.09
2023-02-26T00:04:19.404Z,98792.91
2023-02-26T00:06:54.382Z,98788.50
2023-02-26T00:09:26.441Z,98797.56
2023-02-26T00:11:55.819Z,98801.66
2023-02-26T00:14:25.381Z,98805.63
2023-02-26T00:17:09.717Z,98806.47
2023-02-26T00:19:39.083Z,98814.63
2023-02-26T00:22:07.900Z,98814.84
2023-02-26T00:24:37.539Z,98808.28
2023-02-26T00:27:05.834Z,98813.53
2023-02-26T00:29:34.815Z,98818.44
2023-02-26T00:32:04.020Z,98821.25
2023-02-26T00:34:32.957Z,98821.31
2023-02-26T00:37:12.276Z,98823.00
2023-02-26T00:39:50.761Z,98831.75
2023-02-26T00:42:19.864Z,98832.84
2023-02-26T00:44:49.015Z,98828.38
2023-02-26T00:47:30.216Z,98833.44
2023-02-26T00:50:11.770Z,98835.19
2023-02-26T00:52:49.466Z,98830.78
2023-02-26T00:55:19.879Z,98836.09
2023-02-26T00:57:49.302Z,98836.91
2023-02-26T01:00:19.104Z,98837.00
2023-02-26T01:02:48.134Z,98838.09
2023-02-26T01:05:18.081Z,98845.09
2023-02-26T01:07:54.572Z,98844.38
2023-02-26T01:10:25.905Z,98852.19
2023-02-26T01:12:56.969Z,98849.53
2023-02-26T01:15:26.170Z,98851.28
2023-02-26T01:18:00.151Z,98860.91
2023-02-26T01:20:32.701Z,98857.41
2023-02-26T01:23:04.453Z,98854.13
2023-02-26T01:25:40.811Z,98857.28
2023-02-26T01:28:09.684Z,98852.13
2023-02-26T01:30:38.557Z,98860.09
2023-02-26T01:33:16.482Z,98868.97
2023-02-26T01:35:49.212Z,98867.44
2023-02-26T01:38:25.924Z,98871.56
2023-02-26T01:41:15.004Z,98875.16
2023-02-26T01:43:50.666Z,98878.66
2023-02-26T01:46:26.866Z,98877.56
2023-02-26T01:48:57.397Z,98874.16
2023-02-26T01:51:48.590Z,98876.44
2023-02-26T01:54:20.625Z,98870.41
2023-02-26T01:56:53.505Z,98881.66
2023-02-26T01:59:24.877Z,98881.72
2023-02-26T02:01:55.262Z,98883.41
2023-02-26T02:04:26.963Z,98878.06
2023-02-26T02:06:58.968Z,98875.69
2023-02-26T02:09:28.124Z,98873.72
2023-02-26T02:12:11.953Z,98870.16
2023-02-26T02:14:50.177Z,98880.91
2023-02-26T02:17:24.280Z,98881.78
2023-02-26T02:20:14.928Z,98880.19
2023-02-26T02:23:04.261Z,98876.72
2023-02-26T02:26:23.958Z,98875.25
2023-02-26T02:29:29.489Z,98885.81
2023-02-26T02:32:02.124Z,98888.66
2023-02-26T02:34:38.264Z,98890.63
2023-02-26T02:37:13.650Z,98888.03
2023-02-26T02:39:46.130Z,98888.03
2023-02-26T02:42:24.434Z,98897.69
2023-02-26T02:45:00.089Z,98897.03
2023-02-26T02:47:35.730Z,98892.34
2023-02-26T02:50:09.478Z,98895.28
2023-02-26T02:52:43.086Z,98906.56
2023-02-26T02:55:17.414Z,98908.41
2023-02-26T02:57:51.842Z,98908.59
2023-02-26T03:00:23.895Z,98907.72
2023-02-26T03:03:01.210Z,98914.81
2023-02-26T03:05:29.569Z,98921.59
2023-02-26T03:08:00.808Z,98922.41
2023-02-26T03:10:29.522Z,98929.31
2023-02-26T03:12:57.924Z,98928.59
2023-02-26T03:15:35.620Z,98926.88
2023-02-26T03:18:18.740Z,98925.06
2023-02-26T03:20:57.696Z,98926.91
2023-02-26T03:23:34.810Z,98931.28
2023-02-26T03:26:12.023Z,98930.44
2023-02-26T03:28:46.589Z,98939.16
2023-02-26T03:31:21.039Z,98941.75
2023-02-26T03:34:00.310Z,98942.44
2023-02-26T03:36:33.760Z,98945.16
2023-02-26T03:39:08.038Z,98943.16
2023-02-26T03:41:45.262Z,98944.72
2023-02-26T03:44:20.919Z,98943.91
2023-02-26T03:46:59.855Z,98944.75
2023-02-26T03:49:34.350Z,98949.03
2023-02-26T03:52:05.116Z,98947.34
2023-02-26T03:54:37.317Z,98948.22
2023-02-26T03:57:05.693Z,98958.66
2023-02-26T03:59:36.215Z,98952.72
2023-02-26T04:02:11.016Z,98956.13
2023-02-26T04:04:44.226Z,98957.75
2023-02-26T04:07:14.840Z,98967.34
2023-02-26T04:09:44.030Z,98965.56
2023-02-26T04:12:14.051Z,98970.69
2023-02-26T04:14:42.900Z,98971.47
2023-02-26T04:17:11.430Z,98978.28
2023-02-26T04:19:41.210Z,98984.19
2023-02-26T04:22:09.566Z,98983.56
2023-02-26T04:24:37.855Z,98982.75
2023-02-26T04:27:06.302Z,98980.97
2023-02-26T04:29:34.394Z,98981.88
2023-02-26T04:32:02.955Z,98994.13
2023-02-26T04:34:31.253Z,98992.47
2023-02-26T04:37:00.999Z,98989.78
2023-02-26T04:39:29.034Z,98994.22
2023-02-26T04:41:57.964Z,98995.09
2023-02-26T04:44:26.582Z,99004.81
2023-02-26T04:46:54.753Z,99009.91
2023-02-26T04:49:22.985Z,99006.56
2023-02-26T04:51:51.470Z,99013.41
2023-02-26T04:54:21.258Z,99013.56
2023-02-26T04:56:49.592Z,99029.88
2023-02-26T04:59:17.795Z,99018.75
2023-02-26T05:01:46.452Z,99022.81
2023-02-26T05:04:15.067Z,99024.59
2023-02-26T05:06:44.379Z,99022.06
2023-02-26T05:09:12.888Z,99032.38
2023-02-26T05:11:43.368Z,99029.00
2023-02-26T05:14:11.640Z,99037.69
2023-02-26T05:16:39.799Z,99034.19
2023-02-26T05:19:08.389Z,99036.63
2023-02-26T05:21:37.915Z,99048.88
2023-02-26T05:24:08.807Z,99058.25
2023-02-26T05:26:37.174Z,99063.34
2023-02-26T05:29:06.962Z,99067.59
2023-02-26T05:31:35.405Z,99068.56
2023-02-26T05:34:03.582Z,99070.38
2023-02-26T05:36:32.277Z,99071.13
2023-02-26T05:39:00.948Z,99074.81
2023-02-26T05:41:29.343Z,99082.53
2023-02-26T05:43:57.482Z,99086.06
2023-02-26T05:46:27.578Z,99089.94
2023-02-26T05:48:56.088Z,99096.03
2023-02-26T05:51:24.457Z,99107.44
2023-02-26T05:53:52.837Z,99100.44
2023-02-26T05:56:21.022Z,99103.91
2023-02-26T05:58:49.258Z,99100.31
2023-02-26T06:01:17.955Z,99103.25
2023-02-26T06:03:48.307Z,99110.28
2023-02-26T06:06:18.701Z,99109.28
2023-02-26T06:08:46.991Z,99108.50
2023-02-26T06:11:16.046Z,99112.88
2023-02-26T06:13:44.293Z,99122.28
2023-02-26T06:16:13.958Z,99131.72
2023-02-26T06:18:42.151Z,99129.06
2023-02-26T06:21:11.727Z,99144.50
2023-02-26T06:23:40.240Z,99142.81
2023-02-26T06:26:08.721Z,99142.84
2023-02-26T06:28:37.061Z,99142.84
2023-02-26T06:31:05.807Z,99154.00
2023-02-26T06:33:34.647Z,99158.38
2023-02-26T06:36:02.778Z,99166.88
2023-02-26T06:38:32.821Z,99173.81
2023-02-26T06:41:01.615Z,99174.72
2023-02-26T06:43:29.833Z,99169.56
2023-02-26T06:45:59.425Z,99175.56
2023-02-26T06:48:27.823Z,99174.16
2023-02-26T06:50:56.146Z,99186.06
2023-02-26T06:53:25.006Z,99188.56
2023-02-26T06:55:56.036Z,99190.34
2023-02-26T06:58:26.100Z,99198.19
2023-02-26T07:00:55.178Z,99201.56
2023-02-26T07:03:23.247Z,99203.41
2023-02-26T07:05:51.700Z,99210.91
2023-02-26T07:08:19.889Z,99211.13
2023-02-26T07:10:49.712Z,99219.72
2023-02-26T07:13:20.818Z,99211.91
2023-02-26T07:15:48.888Z,99224.84
2023-02-26T07:18:17.350Z,99222.31
2023-02-26T07:20:46.861Z,99228.34
2023-02-26T07:23:15.533Z,99235.31
2023-02-26T07:25:43.720Z,99247.34
2023-02-26T07:28:12.058Z,99237.63
2023-02-26T07:30:43.017Z,99262.94
2023-02-26T07:33:13.624Z,99256.91
2023-02-26T07:35:42.629Z,99262.94
2023-02-26T07:38:10.808Z,99267.19
2023-02-26T07:40:39.263Z,99264.59
2023-02-26T07:43:07.681Z,99273.91
2023-02-26T07:45:36.526Z,99272.28
2023-02-26T07:48:06.652Z,99276.47
2023-02-26T07:50:35.148Z,99281.66
2023-02-26T07:53:03.242Z,99283.31
2023-02-26T07:55:31.388Z,99294.50
2023-02-26T07:57:59.781Z,99287.41
2023-02-26T08:00:28.122Z,99293.38
2023-02-26T08:02:56.226Z,99294.09
2023-02-26T08:05:26.902Z,99297.41
2023-02-26T08:07:56.533Z,99297.41
2023-02-26T08:10:25.005Z,99298.00
2023-02-26T08:12:53.455Z,99292.97
2023-02-26T08:15:22.284Z,99299.56
2023-02-26T08:17:53.357Z,99298.72
2023-02-26T08:20:21.654Z,99299.38
2023-02-26T08:22:52.086Z,99300.22
2023-02-26T08:25:20.677Z,99293.53
2023-02-26T08:27:48.788Z,99306.63
2023-02-26T08:30:17.357Z,99302.78
2023-02-26T08:32:46.200Z,99313.09
2023-02-26T08:35:15.527Z,99311.31
2023-02-26T08:37:43.982Z,99319.97
2023-02-26T08:40:16.466Z,99314.78
2023-02-26T08:42:44.849Z,99319.09
2023-02-26T08:45:13.621Z,99322.28
2023-02-26T08:47:55.653Z,99326.09
2023-02-26T08:50:25.589Z,99327.84
2023-02-26T08:52:53.837Z,99334.72
2023-02-26T08:55:24.898Z,99332.78
2023-02-26T08:57:53.528Z,99344.38
2023-02-26T09:00:22.907Z,99347.59
2023-02-26T09:02:51.497Z,99351.88
2023-02-26T09:05:20.441Z,99356.19
2023-02-26T09:07:48.963Z,99359.09
2023-02-26T09:10:17.526Z,99352.38
2023-02-26T09:12:47.111Z,99360.03
2023-02-26T09:15:15.812Z,99363.19
2023-02-26T09:17:44.424Z,99373.81
2023-02-26T09:20:14.218Z,99377.34
2023-02-26T09:22:43.121Z,99373.63
2023-02-26T09:25:12.437Z,99380.31
2023-02-26T09:27:40.677Z,99385.31
2023-02-26T09:30:12.369Z,99389.41
2023-02-26T09:32:40.699Z,99390.59
2023-02-26T09:35:10.035Z,99389.78
2023-02-26T09:37:38.466Z,99391.72
2023-02-26T09:40:08.122Z,99395.00
2023-02-26T09:42:55.880Z,99396.66
2023-02-26T09:45:32.243Z,99405.97
2023-02-26T09:48:05.049Z,99406.66
2023-02-26T09:50:40.922Z,99411.44
2023-02-26T09:53:15.905Z,99415.06
2023-02-26T09:55:47.912Z,99416.31
2023-02-26T09:58:20.605Z,99415.41
2023-02-26T10:00:59.586Z,99415.59
2023-02-26T10:03:33.134Z,99419.53
2023-02-26T10:06:20.902Z,99423.63
2023-02-26T10:09:04.112Z,99418.31
2023-02-26T10:11:38.334Z,99421.75
2023-02-26T10:14:12.309Z,99432.22
2023-02-26T10:16:48.716Z,99433.38
2023-02-26T10:19:20.964Z,99432.09
2023-02-26T10:21:53.511Z,99445.00
2023-02-26T10:24:26.332Z,99447.09
2023-02-26T10:27:01.588Z,99449.50
2023-02-26T10:29:37.135Z,99456.75
2023-02-26T10:32:23.435Z,99456.63
2023-02-26T10:34:57.151Z,99453.97
2023-02-26T10:37:37.632Z,99463.81
2023-02-26T10:40:14.595Z,99465.06
2023-02-26T10:42:48.375Z,99457.47
2023-02-26T10:45:30.351Z,99464.25
2023-02-26T10:48:15.367Z,99464.81
2023-02-26T10:50:51.076Z,99467.91
2023-02-26T10:53:19.938Z,99483.75
2023-02-26T10:55:52.577Z,99469.59
2023-02-26T10:58:25.137Z,99486.72
2023-02-26T11:00:55.178Z,99479.91
2023-02-26T11:03:33.942Z,99487.19
2023-02-26T11:06:04.060Z,99483.91
2023-02-26T11:08:35.540Z,99483.34
2023-02-26T11:11:06.571Z,99477.69
2023-02-26T11:13:40.906Z,99480.09
2023-02-26T11:16:16.410Z,99490.03
2023-02-26T11:18:51.505Z,99483.63
2023-02-26T11:21:24.134Z,99492.22
2023-02-26T11:23:59.388Z,99496.00
2023-02-26T11:26:32.674Z,99493.06
2023-02-26T11:29:01.132Z,99496.22
2023-02-26T11:31:31.205Z,99504.69
2023-02-26T11:34:06.432Z,99510.50
2023-02-26T11:36:39.024Z,99498.88
2023-02-26T11:39:10.314Z,99497.34
2023-02-26T11:41:41.426Z,99499.97
2023-02-26T11:44:14.819Z,99490.28
2023-02-26T11:46:46.366Z,99489.47
2023-02-26T11:49:20.416Z,99496.34
2023-02-26T11:52:02.253Z,99495.00
2023-02-26T11:54:32.077Z,99492.78
2023-02-26T11:57:03.976Z,99487.81
2023-02-26T11:59:34.483Z,99487.81
2023-02-26T12:02:12.785Z,99490.34
2023-02-26T12:04:45.674Z,99500.34
2023-02-26T12:07:18.890Z,99494.06
2023-02-26T12:09:47.956Z,99493.56
2023-02-26T12:12:43.713Z,99490.44
2023-02-26T12:15:24.904Z,99492.03
2023-02-26T12:18:07.419Z,99483.03
2023-02-26T12:20:46.455Z,99487.72
2023-02-26T12:23:36.027Z,99497.59
2023-02-26T12:26:19.569Z,99497.50
2023-02-26T12:29:24.129Z,99500.75
2023-02-26T12:32:17.560Z,99503.91
2023-02-26T12:35:17.626Z,99502.53
2023-02-26T12:37:57.515Z,99500.41
2023-02-26T12:41:05.397Z,99514.38
2023-02-26T12:43:41.871Z,99498.63
2023-02-26T12:46:20.219Z,99500.22
2023-02-26T12:49:12.244Z,99509.34
2023-02-26T12:51:54.860Z,99500.31
2023-02-26T12:54:44.300Z,99504.13
2023-02-26T12:57:29.252Z,99497.16
2023-02-26T13:00:15.104Z,99488.72
2023-02-26T13:03:19.593Z,99473.91
2023-02-26T13:06:02.340Z,99497.91
2023-02-26T13:08:38.418Z,99491.03
2023-02-26T13:11:22.274Z,99500.56
2023-02-26T13:14:00.478Z,99508.66
2023-02-26T13:16:40.940Z,99514.63
2023-02-26T13:19:21.871Z,99504.81
2023-02-26T13:21:57.065Z,99510.28
2023-02-26T13:24:29.002Z,99517.00
2023-02-26T13:26:59.841Z,99519.94
2023-02-26T13:29:34.231Z,99520.03
2023-02-26T13:32:06.863Z,99525.31
2023-02-26T13:34:42.758Z,99515.69
2023-02-26T13:37:23.705Z,99520.78
2023-02-26T13:40:18.948Z,99518.28
2023-02-26T13:42:54.510Z,99528.78
2023-02-26T13:45:36.050Z,99531.84
2023-02-26T13:48:17.041Z,99528.75
2023-02-26T13:50:59.044Z,99537.22
2023-02-26T13:53:47.634Z,99530.06
2023-02-26T13:56:18.177Z,99544.53
2023-02-26T13:58:53.450Z,99548.09
2023-02-26T14:01:29.800Z,99555.38
2023-02-26T14:04:10.621Z,99561.03
2023-02-26T14:06:42.378Z,99557.91
2023-02-26T14:09:36.679Z,99551.28
2023-02-26T14:12:06.187Z,99554.44
2023-02-26T14:15:35.614Z,99554.94
2023-02-26T14:18:08.526Z,99558.38
2023-02-26T14:20:37.311Z,99555.72
2023-02-26T14:23:47.618Z,99552.84
2023-02-26T14:26:19.920Z,99548.03
2023-02-26T14:28:58.326Z,99557.81
2023-02-26T14:31:28.254Z,99554.91
2023-02-26T14:34:16.618Z,99566.06
2023-02-26T14:36:49.944Z,99564.94
2023-02-26T14:39:27.520Z,99558.81
2023-02-26T14:42:01.339Z,99568.88
2023-02-26T14:44:32.884Z,99561.56
2023-02-26T14:47:01.892Z,99565.09
2023-02-26T14:49:34.154Z,99563.69
2023-02-26T14:52:36.097Z,99555.06
2023-02-26T14:55:29.305Z,99559.97
2023-02-26T14:58:14.436Z,99559.09
2023-02-26T15:00:51.309Z,99555.59
2023-02-26T15:03:48.954Z,99558.50
2023-02-26T15:06:42.109Z,99551.38
2023-02-26T15:09:19.964Z,99556.03
2023-02-26T15:12:14.115Z,99563.69
2023-02-26T15:15:10.150Z,99554.09
2023-02-26T15:17:54.563Z,99559.59
2023-02-26T15:20:32.554Z,99549.03
2023-02-26T15:23:15.903Z,99563.97
2023-02-26T15:25:48.773Z,99566.19
2023-02-26T15:28:24.421Z,99574.25
2023-02-26T15:30:54.263Z,99576.78
2023-02-26T15:33:24.682Z,99573.31
2023-02-26T15:35:54.864Z,99567.84
2023-02-26T15:38:25.334Z,99569.31
2023-02-26T15:40:56.341Z,99569.75
2023-02-26T15:43:28.699Z,99565.38
2023-02-26T15:46:01.332Z,99571.38
2023-02-26T15:48:33.887Z,99574.53
2023-02-26T15:51:05.312Z,99565.06
2023-02-26T15:53:38.305Z,99568.44
2023-02-26T15:56:12.798Z,99576.84
2023-02-26T15:58:45.332Z,99575.25
2023-02-26T16:01:18.557Z,99593.44
2023-02-26T16:03:47.677Z,99588.72
2023-02-26T16:06:19.691Z,99590.63
2023-02-26T16:08:49.252Z,99588.66
2023-02-26T16:11:18.709Z,99586.34
2023-02-26T16:13:50.579Z,99590.66
2023-02-26T16:16:23.518Z,99592.13
2023-02-26T16:18:53.192Z,99592.66
2023-02-26T16:21:28.650Z,99602.81
2023-02-26T16:24:00.990Z,99612.16
2023-02-26T16:26:35.640Z,99605.00
2023-02-26T16:29:07.747Z,99616.09
2023-02-26T16:31:38.141Z,99615.19
2023-02-26T16:34:23.269Z,99617.03
2023-02-26T16:36:52.212Z,99622.63
2023-02-26T16:39:26.130Z,99634.78
2023-02-26T16:42:16.579Z,99628.63
2023-02-26T16:45:03.067Z,99641.22
2023-02-26T16:47:32.649Z,99644.22
2023-02-26T16:50:04.147Z,99647.19
2023-02-26T16:52:32.748Z,99652.53
2023-02-26T16:55:07.574Z,99653.84
2023-02-26T16:57:38.212Z,99657.59
2023-02-26T17:00:17.789Z,99667.56
2023-02-26T17:02:50.078Z,99671.81
2023-02-26T17:05:26.246Z,99677.91
2023-02-26T17:07:58.879Z,99674.09
2023-02-26T17:10:35.914Z,99677.25
2023-02-26T17:13:13.502Z,99680.28
2023-02-26T17:15:42.508Z,99682.50
2023-02-26T17:18:11.122Z,99689.44
2023-02-26T17:20:40.792Z,99687.75
2023-02-26T17:23:10.451Z,99694.56
2023-02-26T17:25:43.004Z,99691.00
2023-02-26T17:28:15.249Z,99699.69
2023-02-26T17:30:43.645Z,99708.97
2023-02-26T17:33:14.773Z,99714.63
2023-02-26T17:35:44.807Z,99712.66
2023-02-26T17:38:14.513Z,99719.53
2023-02-26T17:40:45.419Z,99727.69
2023-02-26T17:43:13.791Z,99732.28
2023-02-26T17:45:42.637Z,99729.47
2023-02-26T17:48:13.253Z,99728.66
2023-02-26T17:50:47.228Z,99737.69
2023-02-26T17:53:16.561Z,99737.72
2023-02-26T17:55:47.499Z,99740.94
2023-02-26T17:58:27.184Z,99751.28
2023-02-26T18:00:55.509Z,99748.44
2023-02-26T18:03:24.323Z,99749.38
2023-02-26T18:05:54.748Z,99751.03
2023-02-26T18:08:24.635Z,99754.19
2023-02-26T18:10:54.824Z,99753.78
2023-02-26T18:13:23.874Z,99749.31
2023-02-26T18:15:53.716Z,99753.78
2023-02-26T18:18:23.668Z,99752.19
2023-02-26T18:20:52.335Z,99749.78
2023-02-26T18:23:20.594Z,99747.78
2023-02-26T18:25:50.898Z,99751.13
2023-02-26T18:28:26.919Z,99747.75
2023-02-26T18:30:58.288Z,99745.25
2023-02-26T18:33:27.310Z,99753.91
2023-02-26T18:35:58.217Z,99752.16
2023-02-26T18:38:29.314Z,99753.59
2023-02-26T18:40:58.380Z,99761.63
2023-02-26T18:43:28.259Z,99754.78
2023-02-26T18:45:57.358Z,99749.38
2023-02-26T18:48:25.800Z,99750.38
2023-02-26T18:50:55.902Z,99756.75
2023-02-26T18:53:24.924Z,99754.06
2023-02-26T18:55:54.948Z,99754.31
2023-02-26T18:58:23.546Z,99763.03
2023-02-26T19:00:53.581Z,99760.09
2023-02-26T19:03:21.961Z,99760.84
2023-02-26T19:05:58.086Z,99764.94
2023-02-26T19:08:26.367Z,99767.78
2023-02-26T19:10:55.992Z,99769.19
2023-02-26T19:13:24.933Z,99772.59
2023-02-26T19:15:54.899Z,99779.81
2023-02-26T19:18:23.701Z,99774.56
2023-02-26T19:20:52.087Z,99771.31
2023-02-26T19:23:22.764Z,99784.00
2023-02-26T19:25:54.249Z,99779.97
2023-02-26T19:28:22.735Z,99783.84
2023-02-26T19:30:54.480Z,99787.13
2023-02-26T19:33:24.696Z,99788.72
2023-02-26T19:35:54.537Z,99789.81
2023-02-26T19:38:24.134Z,99787.34
2023-02-26T19:40:52.285Z,99790.25
2023-02-26T19:43:23.475Z,99791.25
2023-02-26T19:45:51.782Z,99794.44
2023-02-26T19:48:21.392Z,99792.19
2023-02-26T19:50:52.715Z,99783.63
2023-02-26T19:53:22.692Z,99796.00
2023-02-26T19:55:51.619Z,99792.28
2023-02-26T19:58:21.435Z,99796.88
2023-02-26T20:00:49.992Z,99798.94
2023-02-26T20:03:18.195Z,99806.66
2023-02-26T20:05:47.995Z,99810.94
2023-02-26T20:08:18.362Z,99807.50
2023-02-26T20:10:46.992Z,99808.94
2023-02-26T20:13:15.258Z,99819.53
2023-02-26T20:15:43.538Z,99823.78
2023-02-26T20:18:12.382Z,99823.75
2023-02-26T20:20:41.623Z,99826.59
2023-02-26T20:23:10.621Z,99826.47
2023-02-26T20:25:40.551Z,99837.22
2023-02-26T20:28:09.164Z,99840.47
2023-02-26T20:30:37.222Z,99846.50
2023-02-26T20:33:05.655Z,99840.56
2023-02-26T20:35:33.794Z,99847.47
2023-02-26T20:38:02.487Z,99849.31
2023-02-26T20:40:34.048Z,99860.56
2023-02-26T20:43:04.099Z,99858.97
2023-02-26T20:45:32.862Z,99870.25
2023-02-26T20:48:01.520Z,99866.63
2023-02-26T20:50:30.571Z,99876.13
2023-02-26T20:52:58.787Z,99873.41
2023-02-26T20:55:28.841Z,99881.53
2023-02-26T20:57:57.305Z,99881.44
2023-02-26T21:00:28.248Z,99877.66
2023-02-26T21:02:56.641Z,99882.25
2023-02-26T21:05:25.349Z,99885.88
2023-02-26T21:07:53.900Z,99889.25
2023-02-26T21:10:22.732Z,99887.47
2023-02-26T21:12:51.801Z,99888.38
2023-02-26T21:15:20.466Z,99891.06
2023-02-26T21:17:50.526Z,99892.69
2023-02-26T21:20:19.378Z,99891.97
2023-02-26T21:22:47.847Z,99884.97
2023-02-26T21:25:16.696Z,99889.25
2023-02-26T21:27:45.259Z,99898.06
2023-02-26T21:30:15.244Z,99889.34
2023-02-26T21:32:44.333Z,99888.53
2023-02-26T21:35:16.258Z,99886.03
2023-02-26T21:37:44.609Z,99886.31
2023-02-26T21:40:14.685Z,99883.72
2023-02-26T21:42:43.014Z,99886.97
2023-02-26T21:45:12.053Z,99886.16
2023-02-26T21:47:40.424Z,99885.34
2023-02-26T21:50:09.751Z,99889.84
2023-02-26T21:52:39.505Z,99889.84
2023-02-26T21:55:08.362Z,99890.56
2023-02-26T21:57:36.666Z,99887.16
2023-02-26T22:00:10.101Z,99889.72
2023-02-26T22:02:38.354Z,99889.06
2023-02-26T22:05:06.840Z,99889.88
2023-02-26T22:07:34.882Z,99888.16
2023-02-26T22:10:05.119Z,99889.81
2023-02-26T22:12:33.516Z,99895.88
2023-02-26T22:15:01.967Z,99896.78
2023-02-26T22:17:31.185Z,99893.41
2023-02-26T22:20:00.531Z,99890.63
2023-02-26T22:22:29.051Z,99895.03
2023-02-26T22:24:57.150Z,99899.28
2023-02-26T22:27:27.420Z,99895.88
2023-02-26T22:29:56.411Z,99894.13
2023-02-26T22:32:24.860Z,99893.19
2023-02-26T22:34:56.022Z,99898.53
2023-02-26T22:37:24.050Z,99895.00
2023-02-26T22:39:52.308Z,99900.25
2023-02-26T22:42:20.630Z,99900.38
2023-02-26T22:44:50.282Z,99900.63
2023-02-26T22:47:18.592Z,99897.78
2023-02-26T22:49:47.258Z,99907.31
2023-02-26T22:52:15.706Z,99911.75
2023-02-26T22:54:46.670Z,99898.94
2023-02-26T22:57:15.614Z,99900.59
2023-02-26T22:59:43.909Z,99900.63
2023-02-26T23:02:13.633Z,99905.00
2023-02-26T23:04:43.304Z,99902.31
2023-02-26T23:07:11.828Z,99907.59
2023-02-26T23:09:41.490Z,99904.13
2023-02-26T23:12:10.295Z,99910.22
2023-02-26T23:14:38.708Z,99911.88
2023-02-26T23:17:07.068Z,99915.44
2023-02-26T23:19:36.695Z,99914.69
2023-02-26T23:22:04.823Z,99913.81
2023-02-26T23:24:33.310Z,99907.69
2023-02-26T23:27:01.848Z,99907.66
2023-02-26T23:29:30.311Z,99907.75
2023-02-26T23:31:58.618Z,99910.22
2023-02-26T23:34:27.268Z,99907.72
2023-02-26T23:36:56.883Z,99917.44
2023-02-26T23:39:28.743Z,99911.41
2023-02-26T23:41:57.220Z,99908.84
2023-02-26T23:44:26.034Z,99904.63
2023-02-26T23:46:54.053Z,99902.81
2023-02-26T23:49:22.420Z,99903.66
2023-02-26T23:51:50.879Z,99911.53
2023-02-26T23:54:20.512Z,99912.38
2023-02-26T23:56:48.866Z,99908.94
2023-02-26T23:59:18.076Z,99919.41
